KLBF/LBF METAR and TAF weather

Enter ICAO airport designator
Station Type Date Time Source
KLBF METAR 2019/04/19 07:53 UTC NOAA

KLBF 190753Z AUTO 30004KT 10SM CLR 02/M01 A3015 RMK AO2 SLP219 T00171011


Station Type Date Time Source
KLBF Decoded METAR 2019/04/19 07:53 UTC NOAA

NORTH PLATTE REGIONAL AIRPORT , NE, United States (KLBF) 41-07N 100-40W 847M
Apr 19, 2019 - 03:53 AM EDT / 2019.04.19 0753 UTC
Wind: from the WNW (300 degrees) at 5 MPH (4 KT):0
Visibility: 10 mile(s):0
Sky conditions: clear
Temperature: 35.1 F (1.7 C)
Dew Point: 30.0 F (-1.1 C)
Relative Humidity: 81%
Pressure (altimeter): 30.15 in. Hg (1020 hPa)
ob: KLBF 190753Z AUTO 30004KT 10SM CLR 02/M01 A3015 RMK AO2 SLP219 T00171011
cycle: 8

Station Type Date Time Source
KLBF TAF 2019/04/19 06:22 UTC NOAA

TAF KLBF 190520Z 1906/2006 30005KT P6SM SKC
FM191600 27005KT P6SM FEW250
FM192300 24005KT P6SM SKC
FM200100 21005KT P6SM SKC

Example: see airport list